Buoy 13569

sailwx.info

Track history (hours):
 
Tides and Currents Weather Stations Pressure Air Temp Water Temp Dewpoint Dewpoint Depression Visibility Wind Speed Wind Dir Waves Ship Positions

Drifting buoy 13569

Last reported at 2015-Aug-28 08:00 UTC. Time now 2015-Aug-28 12:47 UTC.
Position N 28°12' W 032°33'.

Barometer 1019.2 mb
Water temperature 26.6 ° C

Date/timePositionNaut miles runAvg speedWind from/ knotsBaromVisibWave heightAir tempDewpointWater temp
2015-Aug-28 08:00N 28°12' W 032°33'0 0.0 1019.2 26.6
2015-Aug-28 07:00N 28°12' W 032°33'1 0.4 1019.2 26.6
2015-Aug-28 04:00N 28°13' W 032°32'2 0.4 1019.5 26.7
2015-Aug-27 23:00N 28°14' W 032°30'1 0.3 1020.5 26.8
2015-Aug-27 20:00N 28°15' W 032°30'3 0.8 1019.5 27.0
2015-Aug-27 16:00N 28°16' W 032°27'3 0.3 1019.5 27.3
2015-Aug-27 07:00N 28°18' W 032°24'8 0.3 1019.5 26.6
2015-Aug-26 08:00N 28°21' W 032°16'1 0.5 1020.5 26.4
2015-Aug-26 06:00N 28°21' W 032°15'0 0.1 1020.4 26.4
2015-Aug-26 05:00N 28°21' W 032°15'2 0.3 1020.5 26.4
2015-Aug-25 22:00N 28°22' W 032°13'0 0.2 1021.4 26.7
2015-Aug-25 20:00N 28°23' W 032°13'4 0.5 1021.0 26.8
2015-Aug-25 11:00N 28°23' W 032°08'1 0.4 1022.0 26.4
2015-Aug-25 08:00N 28°24' W 032°07'1 0.2 1021.4 26.4
2015-Aug-25 05:00N 28°24' W 032°06'2 0.6 1021.0 26.4
2015-Aug-25 02:00N 28°25' W 032°04'0 0.0 1022.0 26.4
2015-Aug-25 00:00N 28°25' W 032°04'1 0.3 1022.2 26.5
2015-Aug-24 22:00N 28°25' W 032°03'2 0.7 1022.0 26.5
2015-Aug-24 19:00N 28°25' W 032°01'0 0.0 1021.0 26.6
2015-Aug-24 18:00N 28°25' W 032°01'1 0.2 1021.0 26.7
2015-Aug-24 14:00N 28°25' W 032°00'3 1.6 1022.5 26.5
2015-Aug-24 12:00N 28°25' W 031°57'0 0.0 1022.9 26.4
2015-Aug-24 11:00N 28°25' W 031°57'1 0.3 1022.7 26.4
2015-Aug-24 08:00N 28°25' W 031°56'3 0.3 1022.5 26.4
2015-Aug-23 20:00N 28°26' W 031°52'1 0.5 1022.5 26.5
2015-Aug-23 19:00N 28°27' W 031°51'6 0.5 1022.5 26.5
2015-Aug-23 06:00N 28°26' W 031°45'2 0.3 1023.0 26.4
2015-Aug-22 23:00N 28°27' W 031°42'2 0.4 1025.0 26.5
2015-Aug-22 17:00N 28°26' W 031°40'0 0.0 1023.5 26.5
2015-Aug-22 16:00N 28°26' W 031°40'4 0.8 1023.7 26.5
2015-Aug-22 11:00N 28°25' W 031°36'0 0.0 1024.5 26.4
2015-Aug-22 10:00N 28°25' W 031°36'0 0.1 1024.3 26.4
2015-Aug-22 08:00N 28°24' W 031°36'0 0.1 1023.4 26.4
2015-Aug-22 07:00N 28°24' W 031°36'3 0.9 1023.0 26.4
2015-Aug-22 04:00N 28°25' W 031°33'7 0.4 1023.2 26.5
2015-Aug-21 12:00N 28°21' W 031°27'1 0.1 1023.5 26.6
2015-Aug-21 08:00N 28°21' W 031°26'1 0.3 1022.2 26.5
2015-Aug-21 05:00N 28°21' W 031°25'0 0.0 1021.2 26.6
2015-Aug-21 04:00N 28°21' W 031°25'2 0.4 1021.2 26.6
2015-Aug-20 23:00N 28°20' W 031°24'3 0.4 1021.7 26.6
2015-Aug-20 17:00N 28°18' W 031°21'0 0.0 1020.0 26.7
2015-Aug-20 15:00N 28°18' W 031°21'3 0.5 1020.4 26.7
2015-Aug-20 10:00N 28°16' W 031°19'1 1.1 1020.2 26.6
2015-Aug-20 09:00N 28°16' W 031°18'2 0.6 1020.0 26.6
2015-Aug-20 06:00N 28°15' W 031°16'0 0.0 1018.7 26.6
2015-Aug-20 05:00N 28°15' W 031°16'3 0.3 1018.5 26.6
2015-Aug-19 20:00N 28°13' W 031°14'7 0.8 1018.4 26.8
2015-Aug-19 11:00N 28°08' W 031°09'3 0.2 1019.0 26.6
2015-Aug-18 20:00N 28°05' W 031°07'2 0.6 1019.0 26.7
2015-Aug-18 16:00N 28°03' W 031°05'3 0.6 1019.2 26.8
2015-Aug-18 11:00N 28°00' W 031°04'   1020.7 26.6
Track history (hours):
 
Tides and Currents Weather Stations Pressure Air Temp Water Temp Dewpoint Dewpoint Depression Visibility Wind Speed Wind Dir Waves Ship Positions

Drifting buoy 13569

Last reported at 2015-Aug-28 08:00 UTC. Time now 2015-Aug-28 12:47 UTC.
Position N 28°12' W 032°33'.

Barometer 1019.2 mb
Water temperature 26.6 ° C

Date/timePositionNaut miles runAvg speedWind from/ knotsBaromVisibWave heightAir tempDewpointWater temp
2015-Aug-28 08:00N 28°12' W 032°33'0 0.0 1019.2 26.6
2015-Aug-28 07:00N 28°12' W 032°33'1 0.4 1019.2 26.6
2015-Aug-28 04:00N 28°13' W 032°32'2 0.4 1019.5 26.7
2015-Aug-27 23:00N 28°14' W 032°30'1 0.3 1020.5 26.8
2015-Aug-27 20:00N 28°15' W 032°30'3 0.8 1019.5 27.0
2015-Aug-27 16:00N 28°16' W 032°27'3 0.3 1019.5 27.3
2015-Aug-27 07:00N 28°18' W 032°24'8 0.3 1019.5 26.6
2015-Aug-26 08:00N 28°21' W 032°16'1 0.5 1020.5 26.4
2015-Aug-26 06:00N 28°21' W 032°15'0 0.1 1020.4 26.4
2015-Aug-26 05:00N 28°21' W 032°15'2 0.3 1020.5 26.4
2015-Aug-25 22:00N 28°22' W 032°13'0 0.2 1021.4 26.7
2015-Aug-25 20:00N 28°23' W 032°13'4 0.5 1021.0 26.8
2015-Aug-25 11:00N 28°23' W 032°08'1 0.4 1022.0 26.4
2015-Aug-25 08:00N 28°24' W 032°07'1 0.2 1021.4 26.4
2015-Aug-25 05:00N 28°24' W 032°06'2 0.6 1021.0 26.4
2015-Aug-25 02:00N 28°25' W 032°04'0 0.0 1022.0 26.4
2015-Aug-25 00:00N 28°25' W 032°04'1 0.3 1022.2 26.5
2015-Aug-24 22:00N 28°25' W 032°03'2 0.7 1022.0 26.5
2015-Aug-24 19:00N 28°25' W 032°01'0 0.0 1021.0 26.6
2015-Aug-24 18:00N 28°25' W 032°01'1 0.2 1021.0 26.7
2015-Aug-24 14:00N 28°25' W 032°00'3 1.6 1022.5 26.5
2015-Aug-24 12:00N 28°25' W 031°57'0 0.0 1022.9 26.4
2015-Aug-24 11:00N 28°25' W 031°57'1 0.3 1022.7 26.4
2015-Aug-24 08:00N 28°25' W 031°56'3 0.3 1022.5 26.4
2015-Aug-23 20:00N 28°26' W 031°52'1 0.5 1022.5 26.5
2015-Aug-23 19:00N 28°27' W 031°51'6 0.5 1022.5 26.5
2015-Aug-23 06:00N 28°26' W 031°45'2 0.3 1023.0 26.4
2015-Aug-22 23:00N 28°27' W 031°42'2 0.4 1025.0 26.5
2015-Aug-22 17:00N 28°26' W 031°40'0 0.0 1023.5 26.5
2015-Aug-22 16:00N 28°26' W 031°40'4 0.8 1023.7 26.5
2015-Aug-22 11:00N 28°25' W 031°36'0 0.0 1024.5 26.4
2015-Aug-22 10:00N 28°25' W 031°36'0 0.1 1024.3 26.4
2015-Aug-22 08:00N 28°24' W 031°36'0 0.1 1023.4 26.4
2015-Aug-22 07:00N 28°24' W 031°36'3 0.9 1023.0 26.4
2015-Aug-22 04:00N 28°25' W 031°33'7 0.4 1023.2 26.5
2015-Aug-21 12:00N 28°21' W 031°27'1 0.1 1023.5 26.6
2015-Aug-21 08:00N 28°21' W 031°26'1 0.3 1022.2 26.5
2015-Aug-21 05:00N 28°21' W 031°25'0 0.0 1021.2 26.6
2015-Aug-21 04:00N 28°21' W 031°25'2 0.4 1021.2 26.6
2015-Aug-20 23:00N 28°20' W 031°24'3 0.4 1021.7 26.6
2015-Aug-20 17:00N 28°18' W 031°21'0 0.0 1020.0 26.7
2015-Aug-20 15:00N 28°18' W 031°21'3 0.5 1020.4 26.7
2015-Aug-20 10:00N 28°16' W 031°19'1 1.1 1020.2 26.6
2015-Aug-20 09:00N 28°16' W 031°18'2 0.6 1020.0 26.6
2015-Aug-20 06:00N 28°15' W 031°16'0 0.0 1018.7 26.6
2015-Aug-20 05:00N 28°15' W 031°16'3 0.3 1018.5 26.6
2015-Aug-19 20:00N 28°13' W 031°14'7 0.8 1018.4 26.8
2015-Aug-19 11:00N 28°08' W 031°09'3 0.2 1019.0 26.6
2015-Aug-18 20:00N 28°05' W 031°07'2 0.6 1019.0 26.7
2015-Aug-18 16:00N 28°03' W 031°05'3 0.6 1019.2 26.8
2015-Aug-18 11:00N 28°00' W 031°04'   1020.7 26.6

Dump ship's entire track history